createdAt,value
2023-05-19T00:01:07.313Z,13.20
2023-05-19T00:03:37.374Z,13.20
2023-05-19T00:06:08.904Z,13.20
2023-05-19T00:08:39.687Z,13.20
2023-05-19T00:11:08.660Z,13.10
2023-05-19T00:13:36.983Z,13.00
2023-05-19T00:16:06.085Z,12.90
2023-05-19T00:18:34.596Z,12.80
2023-05-19T00:21:02.885Z,12.80
2023-05-19T00:23:32.548Z,12.80
2023-05-19T00:26:00.724Z,12.70
2023-05-19T00:28:28.868Z,12.70
2023-05-19T00:30:57.081Z,12.60
2023-05-19T00:33:25.230Z,12.60
2023-05-19T00:35:53.464Z,12.60
2023-05-19T00:38:21.644Z,12.60
2023-05-19T00:40:51.571Z,12.60
2023-05-19T00:43:19.749Z,12.50
2023-05-19T00:45:48.077Z,12.50
2023-05-19T00:48:16.510Z,12.40
2023-05-19T00:50:45.631Z,12.40
2023-05-19T00:53:15.341Z,12.40
2023-05-19T00:55:43.908Z,12.40
2023-05-19T00:58:13.833Z,12.30
2023-05-19T01:00:42.664Z,12.30
2023-05-19T01:03:12.189Z,12.30
2023-05-19T01:05:41.885Z,12.20
2023-05-19T01:08:10.178Z,12.10
2023-05-19T01:10:38.596Z,12.10
2023-05-19T01:13:07.502Z,12.00
2023-05-19T01:15:51.685Z,12.00
2023-05-19T01:18:26.317Z,12.00
2023-05-19T01:21:05.996Z,12.00
2023-05-19T01:23:41.187Z,11.90
2023-05-19T01:26:25.992Z,11.90
2023-05-19T01:29:28.282Z,11.90
2023-05-19T01:32:01.193Z,11.80
2023-05-19T01:34:31.106Z,11.80
2023-05-19T01:37:01.724Z,11.80
2023-05-19T01:39:30.977Z,11.70
2023-05-19T01:41:59.992Z,11.70
2023-05-19T01:44:28.544Z,11.70
2023-05-19T01:46:58.390Z,11.60
2023-05-19T01:49:26.638Z,11.60
2023-05-19T01:51:54.858Z,11.60
2023-05-19T01:54:23.068Z,11.50
2023-05-19T01:56:58.166Z,11.50
2023-05-19T01:59:38.431Z,11.50
2023-05-19T02:02:19.515Z,11.40
2023-05-19T02:04:55.147Z,11.40
2023-05-19T02:07:31.981Z,11.40
2023-05-19T02:10:06.133Z,11.40
2023-05-19T02:12:37.624Z,11.40
2023-05-19T02:15:10.865Z,11.40
2023-05-19T02:17:47.756Z,11.30
2023-05-19T02:20:17.168Z,11.30
2023-05-19T02:22:45.633Z,11.30
2023-05-19T02:25:14.030Z,11.30
2023-05-19T02:27:42.883Z,11.30
2023-05-19T02:30:11.845Z,11.20
2023-05-19T02:32:41.478Z,11.30
2023-05-19T02:35:10.313Z,11.10
2023-05-19T02:37:38.717Z,11.20
2023-05-19T02:40:08.230Z,11.10
2023-05-19T02:42:36.520Z,11.10
2023-05-19T02:45:05.285Z,11.10
2023-05-19T02:47:36.121Z,11.00
2023-05-19T02:50:07.864Z,11.00
2023-05-19T02:52:36.085Z,11.00
2023-05-19T02:55:04.401Z,11.00
2023-05-19T02:57:33.114Z,11.00
2023-05-19T03:00:01.662Z,11.00
2023-05-19T03:02:33.301Z,10.90
2023-05-19T03:05:03.179Z,10.90
2023-05-19T03:07:33.669Z,10.80
2023-05-19T03:10:03.842Z,10.80
2023-05-19T03:12:32.481Z,10.70
2023-05-19T03:15:00.967Z,10.70
2023-05-19T03:17:33.670Z,10.60
2023-05-19T03:20:02.469Z,10.60
2023-05-19T03:22:32.307Z,10.60
2023-05-19T03:25:00.504Z,10.60
2023-05-19T03:27:28.680Z,10.60
2023-05-19T03:29:56.825Z,10.50
2023-05-19T03:32:25.607Z,10.50
2023-05-19T03:34:53.976Z,10.50
2023-05-19T03:37:22.203Z,10.50
2023-05-19T03:39:51.737Z,10.50
2023-05-19T03:42:19.926Z,10.50
2023-05-19T03:44:48.364Z,10.40
2023-05-19T03:47:16.620Z,10.30
2023-05-19T03:49:44.900Z,10.30
2023-05-19T03:52:13.250Z,10.30
2023-05-19T03:54:42.759Z,10.30
2023-05-19T03:57:12.527Z,10.30
2023-05-19T03:59:41.389Z,10.30
2023-05-19T04:02:09.719Z,10.30
2023-05-19T04:04:38.460Z,10.30
2023-05-19T04:07:07.155Z,10.40
2023-05-19T04:09:35.572Z,10.40
2023-05-19T04:12:03.929Z,10.40
2023-05-19T04:14:33.598Z,10.40
2023-05-19T04:17:02.009Z,10.40
2023-05-19T04:19:30.291Z,10.40
2023-05-19T04:21:58.549Z,10.40
2023-05-19T04:24:26.848Z,10.40
2023-05-19T04:26:55.139Z,10.40
2023-05-19T04:29:23.945Z,10.40
2023-05-19T04:31:53.760Z,10.40
2023-05-19T04:34:21.932Z,10.50
2023-05-19T04:36:53.139Z,10.50
2023-05-19T04:39:21.665Z,10.60
2023-05-19T04:41:49.906Z,10.60
2023-05-19T04:44:19.166Z,10.60
2023-05-19T04:46:47.416Z,10.60
2023-05-19T04:49:19.406Z,10.60
2023-05-19T04:51:50.177Z,10.60
2023-05-19T04:54:18.499Z,10.60
2023-05-19T04:56:46.689Z,10.70
2023-05-19T04:59:15.097Z,10.70
2023-05-19T05:01:43.352Z,10.80
2023-05-19T05:04:11.668Z,10.80
2023-05-19T05:06:42.391Z,10.90
2023-05-19T05:09:11.504Z,10.90
2023-05-19T05:11:40.265Z,11.00
2023-05-19T05:14:09.310Z,11.00
2023-05-19T05:16:38.282Z,11.10
2023-05-19T05:19:07.064Z,11.20
2023-05-19T05:21:35.823Z,11.20
2023-05-19T05:24:06.134Z,11.30
2023-05-19T05:26:36.399Z,11.30
2023-05-19T05:29:04.913Z,11.40
2023-05-19T05:31:33.150Z,11.50
2023-05-19T05:34:01.582Z,11.50
2023-05-19T05:36:31.514Z,11.60
2023-05-19T05:39:02.244Z,11.70
2023-05-19T05:41:35.205Z,11.80
2023-05-19T05:44:03.991Z,11.90
2023-05-19T05:46:32.888Z,12.00
2023-05-19T05:49:01.682Z,12.10
2023-05-19T05:51:31.174Z,12.20
2023-05-19T05:54:01.030Z,12.30
2023-05-19T05:56:33.707Z,12.40
2023-05-19T05:59:02.892Z,12.50
2023-05-19T06:01:33.078Z,12.60
2023-05-19T06:04:02.614Z,12.70
2023-05-19T06:06:31.532Z,12.70
2023-05-19T06:08:59.700Z,12.90
2023-05-19T06:11:28.764Z,13.00
2023-05-19T06:13:58.353Z,13.10
2023-05-19T06:16:26.651Z,13.20
2023-05-19T06:18:54.979Z,13.30
2023-05-19T06:21:23.230Z,13.40
2023-05-19T06:23:51.410Z,13.50
2023-05-19T06:26:19.592Z,13.60
2023-05-19T06:28:47.776Z,13.60
2023-05-19T06:31:17.452Z,13.70
2023-05-19T06:33:45.676Z,13.80
2023-05-19T06:36:14.169Z,13.90
2023-05-19T06:38:42.767Z,13.90
2023-05-19T06:41:10.958Z,14.00
2023-05-19T06:43:39.148Z,14.10
2023-05-19T06:46:07.410Z,14.10
2023-05-19T06:48:36.963Z,14.20
2023-05-19T06:51:05.783Z,14.20
2023-05-19T06:53:35.238Z,14.30
2023-05-19T06:56:03.405Z,14.30
2023-05-19T06:58:31.626Z,14.40
2023-05-19T07:00:59.875Z,14.40
2023-05-19T07:03:28.098Z,14.50
2023-05-19T07:05:58.471Z,14.50
2023-05-19T07:08:27.733Z,14.60
2023-05-19T07:10:56.308Z,14.70
2023-05-19T07:13:27.226Z,14.70
2023-05-19T07:15:56.895Z,14.80
2023-05-19T07:18:25.409Z,14.80
2023-05-19T07:20:54.262Z,14.80
2023-05-19T07:23:23.856Z,14.90
2023-05-19T07:25:55.601Z,15.00
2023-05-19T07:28:23.926Z,15.00
2023-05-19T07:30:53.127Z,15.00
2023-05-19T07:33:21.449Z,15.10
2023-05-19T07:35:50.090Z,15.10
2023-05-19T07:38:18.329Z,15.20
2023-05-19T07:40:48.068Z,15.20
2023-05-19T07:43:16.423Z,15.30
2023-05-19T07:45:44.839Z,15.30
2023-05-19T07:48:13.097Z,15.40
2023-05-19T07:50:41.356Z,15.40
2023-05-19T07:53:09.537Z,15.50
2023-05-19T07:55:37.716Z,15.50
2023-05-19T07:58:07.218Z,15.60
2023-05-19T08:00:35.633Z,15.60
2023-05-19T08:03:04.315Z,15.60
2023-05-19T08:05:32.611Z,15.70
2023-05-19T08:08:00.803Z,15.70
2023-05-19T08:10:29.116Z,15.80
2023-05-19T08:12:57.403Z,15.80
2023-05-19T08:15:27.077Z,15.90
2023-05-19T08:17:55.736Z,15.90
2023-05-19T08:20:24.383Z,16.00
2023-05-19T08:22:52.644Z,16.10
2023-05-19T08:25:21.077Z,16.10
2023-05-19T08:27:49.513Z,16.20
2023-05-19T08:30:17.795Z,16.30
2023-05-19T08:32:48.540Z,16.30
2023-05-19T08:35:16.888Z,16.30
2023-05-19T08:37:45.103Z,16.40
2023-05-19T08:40:18.040Z,16.50
2023-05-19T08:42:46.494Z,16.50
2023-05-19T08:45:14.938Z,16.60
2023-05-19T08:47:43.860Z,16.60
2023-05-19T08:50:18.379Z,16.70
2023-05-19T08:52:53.460Z,16.70
2023-05-19T08:55:33.872Z,16.80
2023-05-19T08:58:04.510Z,16.80
2023-05-19T09:00:33.751Z,16.80
2023-05-19T09:03:17.495Z,16.90
2023-05-19T09:05:49.017Z,17.00
2023-05-19T09:08:17.239Z,17.00
2023-05-19T09:10:45.552Z,17.10
2023-05-19T09:13:13.724Z,17.10
2023-05-19T09:15:43.523Z,17.20
2023-05-19T09:18:13.292Z,17.30
2023-05-19T09:20:42.575Z,17.40
2023-05-19T09:23:16.154Z,17.40
2023-05-19T09:25:51.349Z,17.50
2023-05-19T09:28:25.331Z,17.70
2023-05-19T09:31:03.888Z,17.70
2023-05-19T09:33:34.406Z,17.80
2023-05-19T09:36:03.528Z,17.90
2023-05-19T09:38:33.549Z,17.90
2023-05-19T09:41:02.476Z,17.90
2023-05-19T09:43:32.762Z,17.90
2023-05-19T09:46:02.242Z,17.90
2023-05-19T09:48:30.582Z,18.00
2023-05-19T09:50:59.185Z,18.10
2023-05-19T09:53:27.685Z,18.10
2023-05-19T09:55:58.839Z,18.20
2023-05-19T09:58:28.398Z,18.30
2023-05-19T10:00:57.436Z,18.30
2023-05-19T10:03:27.276Z,18.40
2023-05-19T10:05:56.459Z,18.40
2023-05-19T10:08:26.614Z,18.50
2023-05-19T10:10:56.906Z,18.60
2023-05-19T10:13:25.245Z,18.70
2023-05-19T10:15:58.601Z,18.80
2023-05-19T10:18:29.252Z,18.90
2023-05-19T10:20:58.629Z,19.00
2023-05-19T10:23:26.984Z,19.10
2023-05-19T10:26:00.053Z,19.20
2023-05-19T10:28:35.791Z,19.30
2023-05-19T10:31:08.211Z,19.30
2023-05-19T10:33:46.221Z,19.20
2023-05-19T10:36:31.028Z,19.20
2023-05-19T10:39:07.608Z,19.40
2023-05-19T10:41:50.289Z,19.50
2023-05-19T10:44:29.203Z,19.40
2023-05-19T10:46:57.574Z,19.60
2023-05-19T10:49:25.985Z,19.70
2023-05-19T10:51:57.544Z,19.70
2023-05-19T10:54:43.441Z,19.60
2023-05-19T10:57:17.758Z,19.70
2023-05-19T10:59:46.336Z,19.70
2023-05-19T11:02:39.615Z,19.70
2023-05-19T11:05:14.267Z,19.80
2023-05-19T11:07:44.184Z,19.80
2023-05-19T11:10:12.967Z,19.80
2023-05-19T11:12:44.146Z,19.80
2023-05-19T11:15:14.779Z,19.90
2023-05-19T11:17:46.203Z,19.80
2023-05-19T11:20:23.533Z,19.80
2023-05-19T11:23:08.433Z,19.90
2023-05-19T11:25:44.705Z,19.90
2023-05-19T11:28:16.653Z,20.00
2023-05-19T11:30:46.672Z,20.10
2023-05-19T11:33:15.305Z,20.30
2023-05-19T11:35:46.293Z,20.30
2023-05-19T11:38:15.391Z,20.40
2023-05-19T11:40:44.336Z,20.50
2023-05-19T11:43:13.889Z,20.60
2023-05-19T11:45:42.331Z,20.60
2023-05-19T11:48:13.125Z,20.70
2023-05-19T11:50:43.852Z,20.80
2023-05-19T11:53:13.895Z,20.80
2023-05-19T11:55:47.213Z,20.80
2023-05-19T11:58:17.467Z,20.70
2023-05-19T12:00:47.754Z,20.70
2023-05-19T12:03:17.409Z,20.70
2023-05-19T12:05:49.378Z,20.80
2023-05-19T12:08:18.990Z,20.90
2023-05-19T12:10:50.795Z,20.90
2023-05-19T12:13:22.521Z,21.00
2023-05-19T12:15:52.100Z,21.00
2023-05-19T12:18:20.659Z,21.00
2023-05-19T12:20:49.195Z,21.10
2023-05-19T12:23:17.456Z,21.10
2023-05-19T12:25:46.028Z,21.20
2023-05-19T12:28:14.286Z,21.30
2023-05-19T12:30:49.209Z,21.30
2023-05-19T12:33:17.835Z,21.40
2023-05-19T12:35:47.603Z,21.40
2023-05-19T12:38:15.958Z,21.50
2023-05-19T12:40:44.809Z,21.50
2023-05-19T12:43:20.987Z,21.50
2023-05-19T12:45:50.783Z,21.60
2023-05-19T12:48:22.543Z,21.70
2023-05-19T12:50:53.891Z,21.80
2023-05-19T12:53:22.436Z,21.90
2023-05-19T12:55:53.831Z,22.10
2023-05-19T12:58:23.264Z,22.30
2023-05-19T13:01:00.287Z,22.70
2023-05-19T13:03:28.649Z,23.00
2023-05-19T13:05:59.477Z,23.30
2023-05-19T13:08:27.770Z,23.70
2023-05-19T13:10:56.156Z,24.00
2023-05-19T13:13:24.287Z,24.40
2023-05-19T13:15:54.017Z,24.80
2023-05-19T13:18:22.745Z,25.00
2023-05-19T13:20:52.933Z,25.40
2023-05-19T13:23:21.188Z,25.50
2023-05-19T13:25:50.598Z,25.80
2023-05-19T13:28:19.075Z,26.00
2023-05-19T13:30:48.234Z,26.30
2023-05-19T13:33:17.835Z,26.40
2023-05-19T13:35:46.000Z,26.20
2023-05-19T13:38:14.599Z,26.10
2023-05-19T13:40:42.809Z,26.10
2023-05-19T13:43:10.992Z,26.20
2023-05-19T13:45:39.162Z,26.30
2023-05-19T13:48:08.453Z,26.50
2023-05-19T13:50:37.997Z,26.60
2023-05-19T13:53:06.186Z,26.70
2023-05-19T13:55:34.438Z,26.90
2023-05-19T13:58:03.402Z,27.10
2023-05-19T14:00:32.992Z,27.30
2023-05-19T14:03:01.598Z,27.60
2023-05-19T14:05:31.104Z,27.80
2023-05-19T14:08:01.252Z,28.00
2023-05-19T14:10:29.608Z,28.10
2023-05-19T14:15:38.063Z,28.30
2023-05-19T14:18:07.316Z,28.50
2023-05-19T14:20:36.289Z,28.30
2023-05-19T14:23:08.449Z,28.00
2023-05-19T14:25:36.606Z,27.70
2023-05-19T14:28:04.955Z,27.40
2023-05-19T14:30:33.374Z,27.00
2023-05-19T14:33:01.873Z,26.60
2023-05-19T14:35:30.058Z,26.50
2023-05-19T14:37:58.186Z,26.20
2023-05-19T14:40:27.753Z,26.10
2023-05-19T14:42:56.134Z,26.30
2023-05-19T14:45:24.288Z,26.70
2023-05-19T14:47:52.727Z,27.10
2023-05-19T14:50:21.248Z,27.40
2023-05-19T14:52:49.410Z,27.80
2023-05-19T14:55:17.726Z,27.90
2023-05-19T14:57:47.616Z,27.80
2023-05-19T15:00:16.784Z,27.60
2023-05-19T15:02:45.345Z,27.30
2023-05-19T15:05:13.625Z,26.80
2023-05-19T15:07:41.825Z,26.50
2023-05-19T15:10:10.694Z,26.40
2023-05-19T15:12:39.178Z,26.30
2023-05-19T15:15:10.299Z,26.10
2023-05-19T15:17:39.052Z,26.20
2023-05-19T15:20:08.451Z,26.10
2023-05-19T15:22:36.801Z,26.30
2023-05-19T15:25:05.443Z,26.70
2023-05-19T15:27:35.177Z,27.10
2023-05-19T15:30:03.466Z,27.50
2023-05-19T15:32:33.752Z,27.90
2023-05-19T15:35:02.105Z,27.80
2023-05-19T15:37:30.314Z,27.70
2023-05-19T15:39:58.532Z,27.60
2023-05-19T15:42:26.910Z,27.30
2023-05-19T15:44:55.092Z,26.90
2023-05-19T15:47:23.270Z,26.60
2023-05-19T15:49:53.039Z,26.30
2023-05-19T15:52:21.291Z,25.90
2023-05-19T15:54:49.796Z,25.80
2023-05-19T15:57:17.964Z,25.80
2023-05-19T15:59:46.100Z,25.90
2023-05-19T16:02:15.545Z,25.70
2023-05-19T16:04:43.834Z,25.60
2023-05-19T16:07:13.365Z,25.40
2023-05-19T16:09:41.613Z,25.20
2023-05-19T16:12:09.807Z,25.10
2023-05-19T16:14:37.986Z,25.00
2023-05-19T16:17:11.365Z,24.70
2023-05-19T16:19:39.619Z,24.60
2023-05-19T16:22:07.810Z,24.50
2023-05-19T16:24:37.720Z,24.40
2023-05-19T16:27:06.612Z,24.60
2023-05-19T16:29:34.768Z,25.00
2023-05-19T16:32:02.954Z,25.40
2023-05-19T16:34:31.184Z,25.70
2023-05-19T16:36:59.554Z,26.00
2023-05-19T16:39:27.791Z,26.30
2023-05-19T16:41:57.322Z,26.60
2023-05-19T16:44:25.658Z,26.90
2023-05-19T16:46:53.869Z,27.00
2023-05-19T16:49:22.104Z,27.10
2023-05-19T16:51:50.347Z,27.20
2023-05-19T16:54:18.654Z,27.30
2023-05-19T16:56:47.256Z,27.40
2023-05-19T16:59:17.175Z,27.30
2023-05-19T17:01:45.469Z,27.20
2023-05-19T17:04:13.733Z,26.90
2023-05-19T17:06:41.904Z,26.70
2023-05-19T17:09:10.089Z,26.40
2023-05-19T17:11:38.361Z,26.20
2023-05-19T17:14:08.060Z,25.90
2023-05-19T17:16:38.058Z,25.60
2023-05-19T17:19:06.292Z,25.40
2023-05-19T17:21:34.532Z,25.10
2023-05-19T17:24:02.677Z,25.00
2023-05-19T17:26:30.903Z,24.70
2023-05-19T17:28:59.084Z,24.50
2023-05-19T17:31:27.518Z,24.30
2023-05-19T17:33:57.041Z,24.10
2023-05-19T17:36:25.191Z,23.90
2023-05-19T17:38:53.356Z,23.80
2023-05-19T17:41:21.859Z,23.70
2023-05-19T17:43:50.045Z,23.60
2023-05-19T17:46:18.275Z,23.50
2023-05-19T17:48:46.501Z,23.40
2023-05-19T17:51:16.026Z,23.30
2023-05-19T17:53:45.426Z,23.30
2023-05-19T17:56:14.124Z,23.10
2023-05-19T17:58:44.132Z,23.00
2023-05-19T18:01:12.548Z,22.90
2023-05-19T18:03:41.345Z,22.80
2023-05-19T18:06:09.853Z,22.70
2023-05-19T18:08:42.470Z,22.60
2023-05-19T18:11:13.342Z,22.60
2023-05-19T18:13:42.608Z,22.50
2023-05-19T18:16:11.158Z,22.40
2023-05-19T18:18:43.166Z,22.30
2023-05-19T18:21:17.641Z,22.20
2023-05-19T18:23:47.896Z,22.10
2023-05-19T18:26:16.180Z,22.00
2023-05-19T18:28:44.421Z,21.90
2023-05-19T18:31:19.573Z,21.80
2023-05-19T18:33:48.198Z,21.80
2023-05-19T18:36:16.593Z,21.70
2023-05-19T18:38:44.796Z,21.60
2023-05-19T18:41:14.597Z,21.60
2023-05-19T18:43:42.910Z,21.60
2023-05-19T18:46:11.458Z,21.50
2023-05-19T18:48:39.902Z,21.40
2023-05-19T18:51:08.949Z,21.40
2023-05-19T18:53:37.643Z,21.30
2023-05-19T18:56:06.211Z,21.30
2023-05-19T18:58:35.937Z,21.20
2023-05-19T19:01:05.028Z,21.10
2023-05-19T19:03:33.319Z,21.10
2023-05-19T19:06:01.830Z,21.00
2023-05-19T19:08:29.985Z,21.00
2023-05-19T19:11:00.292Z,21.00
2023-05-19T19:13:28.758Z,20.90
2023-05-19T19:15:58.378Z,20.80
2023-05-19T19:18:27.078Z,20.80
2023-05-19T19:20:57.188Z,20.80
2023-05-19T19:23:25.543Z,20.70
2023-05-19T19:25:56.067Z,20.70
2023-05-19T19:28:24.807Z,20.70
2023-05-19T19:30:53.110Z,20.70
2023-05-19T19:33:22.814Z,20.50
2023-05-19T19:35:51.031Z,20.50
2023-05-19T19:38:19.443Z,20.50
2023-05-19T19:40:47.653Z,20.40
2023-05-19T19:43:15.915Z,20.40
2023-05-19T19:45:44.096Z,20.40
2023-05-19T19:48:12.870Z,20.30
2023-05-19T19:50:42.451Z,20.30
2023-05-19T19:53:10.851Z,20.30
2023-05-19T19:55:39.017Z,20.20
2023-05-19T19:58:07.245Z,20.10
2023-05-19T20:00:35.674Z,20.10
2023-05-19T20:03:05.821Z,20.10
2023-05-19T20:05:34.555Z,20.00
2023-05-19T20:08:04.186Z,20.00
2023-05-19T20:10:32.791Z,19.90
2023-05-19T20:13:01.125Z,19.90
2023-05-19T20:15:29.359Z,19.90
2023-05-19T20:17:57.945Z,19.80
2023-05-19T20:20:26.290Z,19.80
2023-05-19T20:22:54.609Z,19.80
2023-05-19T20:25:24.116Z,19.80
2023-05-19T20:27:52.269Z,19.60
2023-05-19T20:30:20.704Z,19.60
2023-05-19T20:32:48.985Z,19.60
2023-05-19T20:35:17.262Z,19.60
2023-05-19T20:37:45.592Z,19.50
2023-05-19T20:40:13.941Z,19.50
2023-05-19T20:42:43.676Z,19.50
2023-05-19T20:45:12.063Z,19.50
2023-05-19T20:47:40.504Z,19.40
2023-05-19T20:50:09.632Z,19.40
2023-05-19T20:52:37.853Z,19.40
2023-05-19T20:55:06.404Z,19.30
2023-05-19T20:57:34.913Z,19.30
2023-05-19T21:00:05.068Z,19.20
2023-05-19T21:02:33.357Z,19.20
2023-05-19T21:05:01.748Z,19.20
2023-05-19T21:07:30.135Z,19.10
2023-05-19T21:09:58.288Z,19.10
2023-05-19T21:12:28.894Z,19.10
2023-05-19T21:14:57.089Z,19.00
2023-05-19T21:17:26.816Z,19.00
2023-05-19T21:19:57.928Z,18.90
2023-05-19T21:22:26.790Z,18.80
2023-05-19T21:24:55.085Z,18.80
2023-05-19T21:27:23.616Z,18.80
2023-05-19T21:29:53.365Z,18.80
2023-05-19T21:32:21.929Z,18.70
2023-05-19T21:34:51.541Z,18.70
2023-05-19T21:37:21.053Z,18.70
2023-05-19T21:39:49.357Z,18.60
2023-05-19T21:42:17.563Z,18.60
2023-05-19T21:44:45.825Z,18.50
2023-05-19T21:47:14.014Z,18.50
2023-05-19T21:49:42.243Z,18.50
2023-05-19T21:52:11.993Z,18.50
2023-05-19T21:54:40.142Z,18.40
2023-05-19T21:57:08.306Z,18.40
2023-05-19T21:59:36.517Z,18.40
2023-05-19T22:02:05.591Z,18.30
2023-05-19T22:04:33.824Z,18.30
2023-05-19T22:07:02.036Z,18.30
2023-05-19T22:09:31.706Z,18.20
2023-05-19T22:11:59.883Z,18.20
2023-05-19T22:14:28.056Z,18.10
2023-05-19T22:16:56.285Z,18.10
2023-05-19T22:19:24.616Z,18.10
2023-05-19T22:22:01.764Z,18.00
2023-05-19T22:24:39.733Z,17.90
2023-05-19T22:27:08.598Z,18.00
2023-05-19T22:29:38.485Z,17.90
2023-05-19T22:32:11.631Z,17.90
2023-05-19T22:34:40.089Z,17.90
2023-05-19T22:37:08.424Z,17.80
2023-05-19T22:39:36.713Z,17.80
2023-05-19T22:42:06.825Z,17.80
2023-05-19T22:44:35.032Z,17.70
2023-05-19T22:47:03.284Z,17.70
2023-05-19T22:49:31.508Z,17.70
2023-05-19T22:51:59.677Z,17.70
2023-05-19T22:54:27.921Z,17.60
2023-05-19T22:56:56.116Z,17.60
2023-05-19T22:59:25.679Z,17.60
2023-05-19T23:01:53.915Z,17.50
2023-05-19T23:04:22.230Z,17.50
2023-05-19T23:06:50.790Z,17.40
2023-05-19T23:09:19.053Z,17.40
2023-05-19T23:11:48.275Z,17.40
2023-05-19T23:14:18.399Z,17.40
2023-05-19T23:16:47.987Z,17.40
2023-05-19T23:19:16.963Z,17.30
2023-05-19T23:21:45.850Z,17.30
2023-05-19T23:24:14.017Z,17.30
2023-05-19T23:26:43.228Z,17.30
2023-05-19T23:29:12.761Z,17.20
2023-05-19T23:31:41.017Z,17.20
2023-05-19T23:34:10.775Z,17.20
2023-05-19T23:36:38.961Z,17.20
2023-05-19T23:39:07.337Z,17.10
2023-05-19T23:41:36.606Z,17.10
2023-05-19T23:44:04.928Z,17.10
2023-05-19T23:46:33.199Z,17.10
2023-05-19T23:49:01.490Z,17.00
2023-05-19T23:51:31.260Z,17.10
2023-05-19T23:53:59.794Z,17.00
2023-05-19T23:56:28.008Z,17.00
2023-05-19T23:58:56.319Z,16.90
